Time;durP1;ratioP1;P1;durP2;ratioP2;P2;SDS_P1;SDS_P2;PMS_P1;PMS_P2;Temp;Humidity;BMP_temperature;BMP_pressure;BME280_temperature;BME280_humidity;BME280_pressure;Samples;Min_cycle;Max_cycle;Signal;HPM_P1;HPM_P2
2022/05/30 00:00:12;;;;;;;0.50;0.50;;;10.70;99.90;;;;;;4932850;29;20419;-73
2022/05/30 00:02:39;;;;;;;0.40;0.20;;;10.70;99.90;;;;;;4931293;29;20410;-74
2022/05/30 00:05:05;;;;;;;0.40;0.30;;;10.60;99.90;;;;;;4932668;29;20463;-74
2022/05/30 00:07:31;;;;;;;0.40;0.20;;;10.50;99.90;;;;;;4948097;29;20411;-73
2022/05/30 00:09:56;;;;;;;0.40;0.20;;;10.60;99.90;;;;;;4931663;29;20877;-76
2022/05/30 00:12:22;;;;;;;0.40;0.20;;;10.60;99.90;;;;;;4922316;29;20409;-73
2022/05/30 00:14:48;;;;;;;0.50;0.40;;;10.70;99.90;;;;;;4914259;29;20759;-73
2022/05/30 00:17:13;;;;;;;0.40;0.20;;;10.50;99.90;;;;;;4913599;29;20389;-73
2022/05/30 00:19:39;;;;;;;0.40;0.20;;;10.40;99.90;;;;;;4914295;29;20397;-73
2022/05/30 00:22:11;;;;;;;0.40;0.20;;;10.50;99.90;;;;;;4921402;29;20545;-74
2022/05/30 00:24:37;;;;;;;0.40;0.20;;;10.40;99.90;;;;;;4933112;29;20458;-73
2022/05/30 00:27:04;;;;;;;0.40;0.40;;;10.30;99.90;;;;;;4932533;29;20403;-74
2022/05/30 00:29:30;;;;;;;0.40;0.20;;;10.20;99.90;;;;;;4933309;29;20394;-73
2022/05/30 00:31:57;;;;;;;0.40;0.20;;;10.20;99.90;;;;;;4923647;29;20413;-77
2022/05/30 00:34:23;;;;;;;0.40;0.20;;;10.30;99.90;;;;;;4913858;29;20409;-73
2022/05/30 00:36:49;;;;;;;0.50;0.30;;;10.20;99.90;;;;;;4914355;29;20397;-73
2022/05/30 00:39:14;;;;;;;0.40;0.20;;;10.20;99.90;;;;;;4912112;29;20473;-73
2022/05/30 00:41:40;;;;;;;0.40;0.20;;;10.20;99.90;;;;;;4919546;29;20422;-73
2022/05/30 00:44:06;;;;;;;0.40;0.30;;;10.20;99.90;;;;;;4932517;29;20967;-73
2022/05/30 00:46:32;;;;;;;0.40;0.20;;;10.20;99.90;;;;;;4933200;29;20404;-73
2022/05/30 00:49:13;;;;;;;0.40;0.20;;;10.20;99.90;;;;;;4929681;29;20459;-77
2022/05/30 00:51:49;;;;;;;0.40;0.20;;;9.90;99.90;;;;;;4933819;29;20396;-73
2022/05/30 00:54:21;;;;;;;0.40;0.20;;;9.90;99.90;;;;;;4926854;29;20431;-73
2022/05/30 00:56:52;;;;;;;0.40;0.20;;;9.90;99.90;;;;;;4917311;29;20393;-73
2022/05/30 00:59:18;;;;;;;0.40;0.20;;;9.90;99.90;;;;;;4926915;29;20399;-73
2022/05/30 01:01:43;;;;;;;0.60;0.60;;;9.90;99.90;;;;;;4920698;29;20401;-73
2022/05/30 01:06:59;;;;;;;0.40;0.20;;;9.90;99.90;;;;;;4917287;29;20834;-76
2022/05/30 01:09:37;;;;;;;0.40;0.30;;;9.90;99.90;;;;;;4915896;29;20496;-73
2022/05/30 01:12:06;;;;;;;0.40;0.20;;;9.80;99.90;;;;;;4916412;29;20432;-74
2022/05/30 01:14:43;;;;;;;0.40;0.20;;;9.60;99.90;;;;;;4917255;29;20469;-73
2022/05/30 01:17:14;;;;;;;0.40;0.22;;;9.60;99.90;;;;;;4921600;29;20399;-73
2022/05/30 01:19:59;;;;;;;0.40;0.20;;;9.50;99.90;;;;;;4935981;29;20396;-74
2022/05/30 01:22:58;;;;;;;0.40;0.20;;;9.50;99.90;;;;;;4934339;29;20403;-73
2022/05/30 01:25:43;;;;;;;0.40;0.20;;;9.40;99.90;;;;;;4935071;29;20442;-73
2022/05/30 01:28:30;;;;;;;0.40;0.20;;;9.40;99.90;;;;;;4948254;29;20419;-73
2022/05/30 01:30:56;;;;;;;0.40;0.20;;;9.30;99.90;;;;;;4936021;29;20403;-73
2022/05/30 01:33:22;;;;;;;0.40;0.40;;;9.10;99.90;;;;;;4934822;29;20399;-73
2022/05/30 01:35:47;;;;;;;0.40;0.32;;;9.30;99.90;;;;;;4935687;29;20393;-73
2022/05/30 01:38:13;;;;;;;0.50;0.50;;;9.40;99.90;;;;;;4918729;29;20924;-73
2022/05/30 01:40:39;;;;;;;0.40;0.20;;;9.40;99.90;;;;;;4915520;29;20404;-73
2022/05/30 01:43:05;;;;;;;0.40;0.20;;;9.20;99.90;;;;;;4915689;29;20397;-74
2022/05/30 01:45:30;;;;;;;0.40;0.20;;;9.30;99.90;;;;;;4916780;29;20421;-73
2022/05/30 01:47:56;;;;;;;0.40;0.20;;;9.20;99.90;;;;;;4929728;29;20407;-74
2022/05/30 01:50:24;;;;;;;0.40;0.20;;;9.10;99.90;;;;;;4933035;29;20421;-73
2022/05/30 01:52:50;;;;;;;0.40;0.20;;;9.00;99.90;;;;;;4919011;29;20888;-73
2022/05/30 01:55:16;;;;;;;0.40;0.20;;;9.10;99.90;;;;;;4934890;29;20414;-73
2022/05/30 01:57:41;;;;;;;0.40;0.20;;;9.10;99.90;;;;;;4931254;29;20409;-73
2022/05/30 02:00:10;;;;;;;0.40;0.20;;;9.00;99.90;;;;;;4915355;29;20427;-74
2022/05/30 02:02:36;;;;;;;0.40;0.20;;;9.00;99.90;;;;;;4917044;29;20858;-74
2022/05/30 02:05:07;;;;;;;0.40;0.20;;;9.00;99.90;;;;;;4915770;29;20766;-77
2022/05/30 02:07:32;;;;;;;0.40;0.20;;;9.10;99.90;;;;;;4916578;29;20426;-73
2022/05/30 02:09:58;;;;;;;0.40;0.20;;;9.00;99.90;;;;;;4916222;29;20433;-73
2022/05/30 02:12:24;;;;;;;0.40;0.20;;;9.00;99.90;;;;;;4915185;29;20916;-73
2022/05/30 02:14:49;;;;;;;0.40;0.20;;;8.90;99.90;;;;;;4914526;29;20866;-73
2022/05/30 02:17:15;;;;;;;0.40;0.30;;;8.80;99.90;;;;;;4914009;29;20408;-73
2022/05/30 02:19:43;;;;;;;0.40;0.20;;;8.70;99.90;;;;;;4915842;29;20417;-73
2022/05/30 02:22:20;;;;;;;0.40;0.20;;;8.80;99.90;;;;;;4930532;29;20422;-73
2022/05/30 02:24:48;;;;;;;0.40;0.20;;;8.80;99.90;;;;;;4933270;29;20435;-73
2022/05/30 02:27:15;;;;;;;0.40;0.20;;;8.90;99.90;;;;;;4933942;29;20872;-73
2022/05/30 02:29:41;;;;;;;0.40;0.20;;;8.80;99.90;;;;;;4918903;29;20401;-73
2022/05/30 02:32:07;;;;;;;0.40;0.20;;;8.70;99.90;;;;;;4913727;29;20421;-73
2022/05/30 02:37:17;;;;;;;0.40;0.20;;;8.50;99.90;;;;;;4915148;29;20384;-73
2022/05/30 02:39:43;;;;;;;0.40;0.20;;;8.40;99.90;;;;;;4929289;29;20506;-73
2022/05/30 02:42:08;;;;;;;0.40;0.20;;;8.30;99.90;;;;;;4933835;29;20391;-73
2022/05/30 02:44:34;;;;;;;0.40;0.30;;;8.30;99.90;;;;;;4934256;29;20419;-73
2022/05/30 02:47:00;;;;;;;0.40;0.20;;;8.30;99.90;;;;;;4934572;29;20419;-73
2022/05/30 02:49:27;;;;;;;0.40;0.20;;;8.30;99.90;;;;;;4933676;29;20467;-74
2022/05/30 02:51:53;;;;;;;0.40;0.20;;;8.20;99.90;;;;;;4949127;29;20403;-73
2022/05/30 02:54:19;;;;;;;0.40;0.20;;;8.20;99.90;;;;;;4932774;29;20502;-74
2022/05/30 02:56:57;;;;;;;0.40;0.20;;;8.10;99.90;;;;;;4934352;29;20488;-73
2022/05/30 02:59:24;;;;;;;0.40;0.20;;;8.10;99.90;;;;;;4916111;29;20429;-73
2022/05/30 03:01:50;;;;;;;0.40;0.20;;;8.10;99.90;;;;;;4915303;29;20477;-73
2022/05/30 03:04:16;;;;;;;0.40;0.20;;;8.00;99.90;;;;;;4919338;29;20503;-73
2022/05/30 03:06:42;;;;;;;0.40;0.20;;;7.90;99.90;;;;;;4934354;29;20400;-73
2022/05/30 03:09:10;;;;;;;0.40;0.30;;;8.00;99.90;;;;;;4933095;29;20404;-75
2022/05/30 03:11:35;;;;;;;0.40;0.20;;;7.80;99.90;;;;;;4933967;29;20420;-73
2022/05/30 03:14:01;;;;;;;0.40;0.20;;;7.90;99.90;;;;;;4931064;29;20830;-73
2022/05/30 03:16:27;;;;;;;1.40;0.67;;;8.10;99.90;;;;;;4914300;29;20495;-73
2022/05/30 03:18:53;;;;;;;0.40;0.20;;;7.90;99.90;;;;;;4915116;29;20389;-73
2022/05/30 03:21:19;;;;;;;0.40;0.20;;;7.80;99.90;;;;;;4914166;29;20418;-73
2022/05/30 03:23:44;;;;;;;0.40;0.20;;;7.80;99.90;;;;;;4914628;29;20401;-73
2022/05/30 03:26:11;;;;;;;0.40;0.20;;;7.70;99.90;;;;;;4899933;29;20892;-74
2022/05/30 03:28:38;;;;;;;0.40;0.20;;;7.80;99.90;;;;;;4933825;29;20837;-73
2022/05/30 03:31:08;;;;;;;0.40;0.20;;;7.70;99.90;;;;;;4918152;29;20790;-73
2022/05/30 03:33:38;;;;;;;0.40;0.20;;;7.60;99.90;;;;;;4914893;29;20409;-73
2022/05/30 03:36:17;;;;;;;0.40;0.20;;;7.60;99.90;;;;;;4913481;29;20402;-73
2022/05/30 03:38:43;;;;;;;0.40;0.20;;;7.40;99.90;;;;;;4914888;29;20457;-73
2022/05/30 03:41:09;;;;;;;0.40;0.20;;;7.50;99.90;;;;;;4912708;29;20454;-76
2022/05/30 03:43:35;;;;;;;0.40;0.30;;;7.50;99.90;;;;;;4914717;29;20732;-73
2022/05/30 03:46:01;;;;;;;0.40;0.30;;;7.50;99.90;;;;;;4897772;29;20416;-73
2022/05/30 03:48:26;;;;;;;0.40;0.20;;;7.30;99.90;;;;;;4912585;29;21033;-73
2022/05/30 03:50:52;;;;;;;0.40;0.20;;;7.30;99.90;;;;;;4897961;29;20416;-72
2022/05/30 03:53:18;;;;;;;0.40;0.20;;;7.30;99.90;;;;;;4913878;29;20416;-73
2022/05/30 03:55:45;;;;;;;0.40;0.20;;;7.20;99.90;;;;;;4914577;29;20397;-73
2022/05/30 03:58:13;;;;;;;0.40;0.20;;;7.10;99.90;;;;;;4921619;29;20407;-76
2022/05/30 04:00:41;;;;;;;0.40;0.20;;;7.20;99.90;;;;;;4932897;29;20403;-73
2022/05/30 04:03:07;;;;;;;0.40;0.20;;;7.00;99.90;;;;;;4932286;29;20956;-75
2022/05/30 04:05:33;;;;;;;0.40;0.20;;;7.00;99.90;;;;;;4932665;29;20459;-73
2022/05/30 04:07:59;;;;;;;0.40;0.20;;;7.10;99.90;;;;;;4931912;29;20453;-73
2022/05/30 04:10:25;;;;;;;0.40;0.20;;;7.30;99.90;;;;;;4913667;29;20421;-73
2022/05/30 04:13:05;;;;;;;0.40;0.20;;;7.40;99.90;;;;;;4914554;29;20762;-73
2022/05/30 04:15:31;;;;;;;0.40;0.20;;;7.40;99.90;;;;;;4913723;29;20389;-73
2022/05/30 04:17:57;;;;;;;0.40;0.20;;;7.30;99.90;;;;;;4927146;29;20398;-73
2022/05/30 04:20:23;;;;;;;0.40;0.20;;;7.40;99.90;;;;;;4921173;29;20854;-74
2022/05/30 04:22:50;;;;;;;0.40;0.20;;;7.60;99.90;;;;;;4932754;29;20483;-73
2022/05/30 04:25:15;;;;;;;0.40;0.20;;;7.20;99.90;;;;;;4946837;29;20526;-74
2022/05/30 04:27:41;;;;;;;0.40;0.20;;;7.40;99.90;;;;;;4936421;29;20459;-73
2022/05/30 04:30:09;;;;;;;0.40;0.20;;;7.40;99.90;;;;;;4928750;29;20405;-74
2022/05/30 04:32:36;;;;;;;0.40;0.20;;;7.40;99.90;;;;;;4925958;29;20419;-73
2022/05/30 04:35:04;;;;;;;0.40;0.20;;;7.30;99.90;;;;;;4934028;29;20403;-72
2022/05/30 04:37:29;;;;;;;0.40;0.20;;;7.30;99.90;;;;;;4923815;29;20963;-72
2022/05/30 04:39:55;;;;;;;0.40;0.20;;;7.40;99.90;;;;;;4917784;29;20480;-72
2022/05/30 04:42:21;;;;;;;0.40;0.20;;;7.50;99.90;;;;;;4918103;29;20416;-72
2022/05/30 04:44:46;;;;;;;0.40;0.20;;;7.50;99.90;;;;;;4917768;29;20428;-72
2022/05/30 04:47:12;;;;;;;0.40;0.20;;;7.60;99.90;;;;;;4922790;29;20407;-73
2022/05/30 04:49:38;;;;;;;0.40;0.20;;;7.50;99.90;;;;;;4930530;29;20747;-72
2022/05/30 04:52:05;;;;;;;0.40;0.20;;;7.50;99.90;;;;;;4921685;29;20412;-73
2022/05/30 04:54:31;;;;;;;0.40;0.20;;;7.50;99.90;;;;;;4925515;29;20488;-73
2022/05/30 04:56:57;;;;;;;0.40;0.20;;;7.50;99.90;;;;;;4924673;29;20408;-72
2022/05/30 04:59:22;;;;;;;0.40;0.20;;;7.60;99.90;;;;;;4919694;29;20706;-72
2022/05/30 05:01:48;;;;;;;0.40;0.20;;;7.70;99.90;;;;;;4928521;29;20415;-72
2022/05/30 05:04:14;;;;;;;0.40;0.20;;;7.80;99.90;;;;;;4931506;29;20518;-73
2022/05/30 05:06:43;;;;;;;0.40;0.30;;;7.80;99.90;;;;;;4931915;29;20407;-72
2022/05/30 05:09:18;;;;;;;0.40;0.20;;;7.80;99.90;;;;;;4936378;29;20516;-72
2022/05/30 05:11:45;;;;;;;0.40;0.20;;;7.80;99.90;;;;;;4930607;29;20420;-72
2022/05/30 05:14:12;;;;;;;0.40;0.30;;;7.70;99.90;;;;;;4922600;29;20419;-72
2022/05/30 05:16:39;;;;;;;0.40;0.20;;;7.90;99.90;;;;;;4935777;29;20411;-72
2022/05/30 05:19:05;;;;;;;0.85;0.85;;;8.10;99.90;;;;;;4929543;29;20418;-72
2022/05/30 05:21:37;;;;;;;0.40;0.20;;;8.10;99.90;;;;;;4923204;29;20409;-72
2022/05/30 05:24:05;;;;;;;0.40;0.30;;;8.10;99.90;;;;;;4921803;29;20441;-72
2022/05/30 05:26:31;;;;;;;0.40;0.20;;;8.30;99.90;;;;;;4923922;29;20611;-72
2022/05/30 05:28:57;;;;;;;0.40;0.30;;;8.40;99.90;;;;;;4918094;29;20488;-72
2022/05/30 05:31:34;;;;;;;0.40;0.20;;;8.50;99.90;;;;;;4925421;29;20735;-72
2022/05/30 05:34:01;;;;;;;0.50;0.50;;;8.50;99.90;;;;;;4932074;29;20534;-72
2022/05/30 05:36:30;;;;;;;0.40;0.20;;;8.60;99.90;;;;;;4922945;29;20762;-72
2022/05/30 05:38:56;;;;;;;0.40;0.20;;;8.70;99.90;;;;;;4916123;29;20791;-72
2022/05/30 05:41:23;;;;;;;0.40;0.20;;;8.90;99.90;;;;;;4916048;29;20463;-72
2022/05/30 05:43:49;;;;;;;0.40;0.20;;;9.10;99.90;;;;;;4916790;29;20974;-72
2022/05/30 05:46:17;;;;;;;0.40;0.20;;;9.10;99.90;;;;;;4934486;29;20413;-73
2022/05/30 05:48:43;;;;;;;0.40;0.20;;;9.10;99.90;;;;;;4921044;29;20412;-72
2022/05/30 05:51:09;;;;;;;0.40;0.20;;;9.10;99.90;;;;;;4921249;29;20888;-73
2022/05/30 05:53:35;;;;;;;0.40;0.22;;;9.10;99.90;;;;;;4925972;29;20404;-74
2022/05/30 05:56:15;;;;;;;1.70;0.80;;;9.10;99.90;;;;;;4925910;29;20890;-74
2022/05/30 05:58:41;;;;;;;0.40;0.20;;;9.20;99.90;;;;;;4916014;29;20401;-74
2022/05/30 06:01:12;;;;;;;0.40;0.20;;;9.40;99.90;;;;;;4918459;29;20412;-74
2022/05/30 06:03:38;;;;;;;0.40;0.20;;;9.60;99.90;;;;;;4922244;29;20516;-74
2022/05/30 06:06:05;;;;;;;0.40;0.20;;;9.70;99.90;;;;;;4919735;29;20536;-74
2022/05/30 06:08:31;;;;;;;0.40;0.30;;;9.60;99.90;;;;;;4919456;29;20447;-73
2022/05/30 06:11:09;;;;;;;0.40;0.20;;;9.80;99.90;;;;;;4916712;29;20418;-73
2022/05/30 06:13:39;;;;;;;0.40;0.20;;;9.90;99.90;;;;;;4921489;29;21033;-73
2022/05/30 06:16:10;;;;;;;0.40;0.30;;;10.00;99.90;;;;;;4924498;29;20408;-73
2022/05/30 06:18:36;;;;;;;0.40;0.20;;;10.00;99.90;;;;;;4934271;29;21054;-73
2022/05/30 06:21:02;;;;;;;0.40;0.20;;;10.00;99.90;;;;;;4921926;29;20389;-74
2022/05/30 06:23:28;;;;;;;0.40;0.20;;;10.10;99.90;;;;;;4915502;29;20405;-70
2022/05/30 06:25:54;;;;;;;0.40;0.20;;;10.40;99.90;;;;;;4914400;29;20438;-71
2022/05/30 06:28:20;;;;;;;0.40;0.20;;;10.30;99.90;;;;;;4915135;29;20389;-72
2022/05/30 06:30:46;;;;;;;0.40;0.20;;;10.40;99.90;;;;;;4920775;29;20416;-72
2022/05/30 06:33:11;;;;;;;1.70;1.00;;;10.40;99.90;;;;;;4931558;29;20441;-75
2022/05/30 06:35:43;;;;;;;0.40;0.20;;;10.60;99.90;;;;;;4951256;29;20521;-71
2022/05/30 06:38:11;;;;;;;0.40;0.20;;;10.70;99.90;;;;;;4952470;29;20804;-72
2022/05/30 06:40:38;;;;;;;0.40;0.20;;;10.60;99.90;;;;;;4947643;29;21101;-72
2022/05/30 06:43:04;;;;;;;0.40;0.20;;;10.50;99.90;;;;;;4933614;29;20910;-72
2022/05/30 06:45:33;;;;;;;0.40;0.20;;;10.70;99.90;;;;;;4932690;29;20428;-74
2022/05/30 06:47:59;;;;;;;0.40;0.20;;;10.70;99.90;;;;;;4924725;29;20452;-74
2022/05/30 06:50:26;;;;;;;0.40;0.30;;;10.70;99.90;;;;;;4929028;29;20422;-73
2022/05/30 06:52:52;;;;;;;0.43;0.32;;;10.70;99.90;;;;;;4926481;29;20408;-74
2022/05/30 06:55:18;;;;;;;0.40;0.20;;;10.80;99.90;;;;;;4941878;28;20906;-76
2022/05/30 07:00:30;;;;;;;0.40;0.30;;;10.90;99.90;;;;;;4927082;29;20412;-72
2022/05/30 07:02:57;;;;;;;0.40;0.20;;;11.00;99.90;;;;;;4927316;29;20418;-70
2022/05/30 07:05:23;;;;;;;0.40;0.20;;;11.10;99.90;;;;;;4925694;29;20959;-73
2022/05/30 07:07:49;;;;;;;0.40;0.20;;;11.10;99.90;;;;;;4937723;29;20407;-73
2022/05/30 07:10:15;;;;;;;0.40;0.20;;;11.10;99.90;;;;;;4926519;29;20399;-73
2022/05/30 07:12:40;;;;;;;0.40;0.20;;;11.10;99.90;;;;;;4924818;29;20853;-73
2022/05/30 07:15:07;;;;;;;0.40;0.20;;;11.30;99.90;;;;;;4923913;29;20950;-71
2022/05/30 07:17:34;;;;;;;0.40;0.30;;;11.20;99.90;;;;;;4922693;29;20408;-73
2022/05/30 07:20:00;;;;;;;0.40;0.30;;;11.30;99.90;;;;;;4927247;29;20488;-71
2022/05/30 07:22:26;;;;;;;0.40;0.20;;;11.10;99.30;;;;;;4925635;29;20492;-71
2022/05/30 07:24:52;;;;;;;0.40;0.30;;;11.40;99.90;;;;;;4922739;29;20874;-70
2022/05/30 07:27:17;;;;;;;0.70;0.70;;;11.40;99.20;;;;;;4924696;29;20388;-68
2022/05/30 07:29:43;;;;;;;0.40;0.20;;;11.50;98.60;;;;;;4925186;29;20409;-69
2022/05/30 07:32:09;;;;;;;0.40;0.20;;;11.70;98.30;;;;;;4941105;29;20405;-72
2022/05/30 07:34:37;;;;;;;0.40;0.20;;;11.50;98.30;;;;;;4928786;29;20454;-72
2022/05/30 07:37:03;;;;;;;0.40;0.30;;;11.70;99.00;;;;;;4924990;29;20882;-73
2022/05/30 07:39:29;;;;;;;0.40;0.30;;;11.70;97.10;;;;;;4926957;29;20387;-72
2022/05/30 07:41:54;;;;;;;0.40;0.40;;;11.80;96.70;;;;;;4927383;29;20776;-69
2022/05/30 07:44:20;;;;;;;0.40;0.20;;;11.80;97.50;;;;;;4928052;29;20419;-73
2022/05/30 07:46:46;;;;;;;0.40;0.20;;;11.90;96.10;;;;;;4922461;29;20401;-70
2022/05/30 07:49:13;;;;;;;0.40;0.30;;;11.80;95.50;;;;;;4922896;29;20391;-72
2022/05/30 07:51:39;;;;;;;0.40;0.20;;;12.10;95.00;;;;;;4923974;29;20801;-72
2022/05/30 07:54:06;;;;;;;0.40;0.20;;;12.20;95.00;;;;;;4925480;29;20467;-71
2022/05/30 07:56:32;;;;;;;0.40;0.20;;;12.20;94.50;;;;;;4922637;29;20457;-69
2022/05/30 07:58:57;;;;;;;0.40;0.20;;;12.10;94.10;;;;;;4925183;29;20400;-70
2022/05/30 08:01:24;;;;;;;0.40;0.20;;;12.20;94.50;;;;;;4925033;29;20422;-71
2022/05/30 08:03:51;;;;;;;0.40;0.20;;;12.40;93.30;;;;;;4925827;29;20942;-72
2022/05/30 08:06:25;;;;;;;0.40;0.20;;;12.40;93.50;;;;;;4926279;29;20383;-71
2022/05/30 08:08:52;;;;;;;0.40;0.30;;;12.50;93.50;;;;;;4927643;29;20904;-70
2022/05/30 08:11:19;;;;;;;0.40;0.20;;;12.50;93.10;;;;;;4927263;29;20764;-70
2022/05/30 08:13:45;;;;;;;0.40;0.20;;;12.70;91.90;;;;;;4924957;29;20419;-69
2022/05/30 08:16:12;;;;;;;0.40;0.20;;;12.80;91.70;;;;;;4929904;29;20480;-68
2022/05/30 08:18:38;;;;;;;0.70;0.60;;;12.70;89.70;;;;;;4924992;29;20429;-68
2022/05/30 08:21:04;;;;;;;0.40;0.20;;;12.90;91.30;;;;;;4922529;29;20419;-67
2022/05/30 08:23:30;;;;;;;0.40;0.20;;;12.90;91.00;;;;;;4924091;29;20423;-70
2022/05/30 08:25:57;;;;;;;0.40;0.20;;;13.00;90.90;;;;;;4927085;29;20502;-71
2022/05/30 08:28:22;;;;;;;0.40;0.30;;;13.20;91.10;;;;;;4926678;29;20431;-71
2022/05/30 08:30:49;;;;;;;0.40;0.20;;;13.10;90.40;;;;;;4928049;29;20897;-70
2022/05/30 08:33:17;;;;;;;0.40;0.30;;;13.20;90.40;;;;;;4927098;29;20498;-71
2022/05/30 08:35:45;;;;;;;0.60;0.50;;;13.20;90.80;;;;;;4928934;29;20657;-71
2022/05/30 08:38:12;;;;;;;0.40;0.20;;;13.40;89.30;;;;;;4926480;29;20813;-71
2022/05/30 08:43:29;;;;;;;0.50;0.50;;;13.70;87.60;;;;;;4929710;29;20757;-70
2022/05/30 08:46:12;;;;;;;0.40;0.20;;;13.80;88.00;;;;;;4929812;29;20415;-72
2022/05/30 08:48:46;;;;;;;0.40;0.28;;;13.90;88.10;;;;;;4927816;29;20923;-70
2022/05/30 08:51:15;;;;;;;0.40;0.20;;;13.90;88.00;;;;;;4928665;29;20402;-71
2022/05/30 08:54:00;;;;;;;0.40;0.20;;;13.80;89.30;;;;;;4926878;29;20424;-72
2022/05/30 08:56:31;;;;;;;0.40;0.30;;;14.10;88.20;;;;;;4926438;29;20407;-72
2022/05/30 08:59:09;;;;;;;0.40;0.20;;;14.20;79.50;;;;;;4928348;29;20418;-72
2022/05/30 09:02:02;;;;;;;0.40;0.20;;;14.10;81.10;;;;;;4927096;29;20390;-71
2022/05/30 09:04:47;;;;;;;0.40;0.40;;;14.20;85.40;;;;;;4929870;29;20431;-72
2022/05/30 09:07:22;;;;;;;0.50;0.50;;;14.40;84.40;;;;;;4929050;29;20431;-71
2022/05/30 09:09:50;;;;;;;0.40;0.20;;;14.70;79.30;;;;;;4929649;29;21030;-72
2022/05/30 09:12:27;;;;;;;0.40;0.20;;;14.70;78.10;;;;;;4932187;29;20757;-71
2022/05/30 09:15:11;;;;;;;0.40;0.20;;;14.80;76.80;;;;;;4933585;29;20451;-70
2022/05/30 09:17:52;;;;;;;0.40;0.20;;;14.60;76.70;;;;;;4925213;29;20404;-71
2022/05/30 09:20:21;;;;;;;0.40;0.20;;;14.70;75.70;;;;;;4929894;29;20404;-69
2022/05/30 09:22:47;;;;;;;0.40;0.20;;;14.70;75.70;;;;;;4932367;29;20399;-70
2022/05/30 09:28:16;;;;;;;1.50;0.80;;;15.00;77.20;;;;;;4929225;29;20439;-68
2022/05/30 09:31:09;;;;;;;0.40;0.20;;;15.10;77.30;;;;;;4924277;29;20879;-71
2022/05/30 09:33:39;;;;;;;0.40;0.20;;;15.30;74.70;;;;;;4924072;29;20757;-70
2022/05/30 09:36:29;;;;;;;0.40;0.30;;;15.50;73.30;;;;;;4923943;29;20419;-71
2022/05/30 09:39:01;;;;;;;0.40;0.20;;;15.50;72.10;;;;;;4921357;29;20463;-71
2022/05/30 09:41:46;;;;;;;0.40;0.20;;;16.00;71.60;;;;;;4921212;29;20411;-72
2022/05/30 09:44:21;;;;;;;0.40;0.20;;;15.70;67.40;;;;;;4932553;29;20436;-70
2022/05/30 09:46:51;;;;;;;0.40;0.30;;;15.70;68.20;;;;;;4901515;29;21045;-71
2022/05/30 09:49:18;;;;;;;0.40;0.20;;;15.70;67.30;;;;;;4924120;29;20405;-69
2022/05/30 09:52:00;;;;;;;0.40;0.20;;;15.90;62.30;;;;;;4924081;29;20401;-71
2022/05/30 09:54:26;;;;;;;0.60;0.30;;;15.80;63.40;;;;;;4922403;29;20421;-69
2022/05/30 09:56:57;;;;;;;0.40;0.23;;;15.80;63.20;;;;;;4922713;29;20409;-71
2022/05/30 09:59:26;;;;;;;0.40;0.30;;;15.80;62.90;;;;;;4923899;29;20408;-70
2022/05/30 10:01:53;;;;;;;0.40;0.20;;;16.00;53.30;;;;;;4925529;29;20440;-69
2022/05/30 10:04:33;;;;;;;0.85;0.85;;;16.00;49.00;;;;;;4921452;29;20444;-70
2022/05/30 10:07:15;;;;;;;0.40;0.22;;;16.00;48.10;;;;;;4921532;29;20471;-71
2022/05/30 10:10:11;;;;;;;0.40;0.20;;;16.10;50.50;;;;;;4926822;29;20853;-71
2022/05/30 10:12:53;;;;;;;0.40;0.20;;;16.10;49.60;;;;;;4922017;29;20407;-67
2022/05/30 10:15:24;;;;;;;0.40;0.28;;;16.20;52.40;;;;;;4924945;29;20385;-69
2022/05/30 10:17:51;;;;;;;0.40;0.30;;;16.20;52.40;;;;;;4924272;29;20445;-69
2022/05/30 10:20:42;;;;;;;0.50;0.50;;;16.40;56.10;;;;;;4929530;29;20494;-69
2022/05/30 10:29:08;;;;;;;0.40;0.20;;;16.50;54.90;;;;;;4922678;29;20766;-71
2022/05/30 10:32:03;;;;;;;0.40;0.30;;;16.70;55.60;;;;;;4925402;29;20416;-71
2022/05/30 10:34:51;;;;;;;0.40;0.20;;;16.70;55.30;;;;;;4916368;29;20424;-71
2022/05/30 10:37:35;;;;;;;0.40;0.20;;;17.00;52.20;;;;;;4929054;29;20432;-70
2022/05/30 10:40:13;;;;;;;0.40;0.20;;;17.00;51.70;;;;;;4914894;29;20690;-69
2022/05/30 10:43:00;;;;;;;1.30;1.20;;;17.00;49.50;;;;;;4921341;29;20420;-69
2022/05/30 10:45:46;;;;;;;0.40;0.20;;;16.90;49.50;;;;;;4924652;29;20441;-70
2022/05/30 10:48:37;;;;;;;0.40;0.20;;;16.90;50.10;;;;;;4926003;29;20936;-70
2022/05/30 10:51:08;;;;;;;0.40;0.20;;;17.10;52.50;;;;;;4920861;29;20926;-68
2022/05/30 10:53:46;;;;;;;0.40;0.20;;;17.00;52.80;;;;;;4925548;29;20418;-71
2022/05/30 10:56:28;;;;;;;0.40;0.20;;;17.20;53.10;;;;;;4919106;29;20417;-68
2022/05/30 10:59:16;;;;;;;0.40;0.20;;;16.90;51.70;;;;;;4923959;29;20422;-70
2022/05/30 11:01:50;;;;;;;0.40;0.20;;;17.20;53.20;;;;;;4927182;29;20440;-70
2022/05/30 11:04:41;;;;;;;0.40;0.20;;;17.50;52.20;;;;;;4927535;29;20436;-69
2022/05/30 11:07:14;;;;;;;0.40;0.20;;;17.60;51.10;;;;;;4925652;29;20508;-69
2022/05/30 11:09:50;;;;;;;0.40;0.20;;;17.70;51.60;;;;;;4930926;29;20399;-68
2022/05/30 11:12:22;;;;;;;0.40;0.20;;;17.90;50.20;;;;;;4926286;29;20411;-68
2022/05/30 11:15:11;;;;;;;0.40;0.20;;;17.90;50.10;;;;;;4926742;29;20447;-68
2022/05/30 11:17:50;;;;;;;0.40;0.22;;;17.90;51.00;;;;;;4924958;29;20428;-69
2022/05/30 11:20:23;;;;;;;0.40;0.20;;;18.20;50.60;;;;;;4920960;29;20424;-69
2022/05/30 11:22:52;;;;;;;0.40;0.30;;;18.30;51.30;;;;;;4925390;29;20411;-69
2022/05/30 11:25:42;;;;;;;0.40;0.20;;;19.00;52.60;;;;;;4920363;29;20433;-69
2022/05/30 11:28:30;;;;;;;0.40;0.20;;;18.90;48.60;;;;;;4902335;29;20939;-69
2022/05/30 11:31:20;;;;;;;0.40;0.20;;;19.30;50.60;;;;;;4914795;29;20409;-70
2022/05/30 11:34:01;;;;;;;0.40;0.20;;;19.70;50.80;;;;;;4924229;29;20404;-70
2022/05/30 11:36:44;;;;;;;0.40;0.20;;;20.10;51.10;;;;;;4925751;29;20459;-70
2022/05/30 11:39:37;;;;;;;0.40;0.30;;;21.40;51.20;;;;;;4933193;29;20455;-70
2022/05/30 11:42:10;;;;;;;0.40;0.30;;;21.90;47.20;;;;;;4929068;29;20407;-71
2022/05/30 11:45:02;;;;;;;0.40;0.30;;;22.90;44.00;;;;;;4923884;29;20427;-71
2022/05/30 11:48:00;;;;;;;0.40;0.20;;;22.20;40.90;;;;;;4930189;29;20403;-69
2022/05/30 11:50:26;;;;;;;0.40;0.30;;;21.00;42.50;;;;;;4922962;29;20425;-70
2022/05/30 11:52:58;;;;;;;0.40;0.30;;;21.80;42.10;;;;;;4926293;29;20411;-70
2022/05/30 11:55:34;;;;;;;0.40;0.20;;;21.90;42.40;;;;;;4922028;29;20470;-70
2022/05/30 11:58:07;;;;;;;0.40;0.30;;;22.60;41.80;;;;;;4932717;29;20418;-68
2022/05/30 12:00:47;;;;;;;0.40;0.30;;;21.40;41.80;;;;;;4926015;29;20856;-70
2022/05/30 12:03:50;;;;;;;0.40;0.20;;;22.40;41.60;;;;;;4923025;29;20415;-70
2022/05/30 12:06:37;;;;;;;0.40;0.20;;;22.60;39.20;;;;;;4923855;29;20472;-69
2022/05/30 12:09:33;;;;;;;0.40;0.22;;;21.80;39.20;;;;;;4896884;29;20415;-70
2022/05/30 12:11:59;;;;;;;0.40;0.30;;;22.20;41.40;;;;;;4929217;29;20419;-71
2022/05/30 12:14:31;;;;;;;0.40;0.20;;;23.20;45.10;;;;;;4930526;29;20436;-68
2022/05/30 12:17:12;;;;;;;0.40;0.20;;;22.30;38.50;;;;;;4925676;29;20411;-68
2022/05/30 12:25:38;;;;;;;0.40;0.30;;;22.00;37.50;;;;;;4928653;29;20792;-67
2022/05/30 12:28:31;;;;;;;0.40;0.20;;;22.20;37.90;;;;;;4940833;29;20427;-71
2022/05/30 12:30:58;;;;;;;0.40;0.20;;;24.20;37.20;;;;;;4929957;29;20544;-69
2022/05/30 12:33:30;;;;;;;0.40;0.20;;;24.50;35.60;;;;;;4939728;29;20385;-69
2022/05/30 12:36:08;;;;;;;0.40;0.30;;;23.40;34.70;;;;;;4932609;29;20572;-71
2022/05/30 12:38:53;;;;;;;0.40;0.20;;;22.80;38.70;;;;;;4929704;29;20400;-71
2022/05/30 12:41:58;;;;;;;0.40;0.22;;;22.90;34.70;;;;;;4932965;29;20407;-70
2022/05/30 12:44:45;;;;;;;0.40;0.20;;;23.30;38.80;;;;;;4911148;29;20565;-70
2022/05/30 12:47:18;;;;;;;0.40;0.30;;;22.70;35.10;;;;;;4948204;28;20402;-70
2022/05/30 12:49:49;;;;;;;0.40;0.30;;;22.30;38.50;;;;;;4933209;29;20565;-71
2022/05/30 12:52:21;;;;;;;0.40;0.30;;;22.50;36.70;;;;;;4931155;29;20899;-70
2022/05/30 12:54:58;;;;;;;0.40;0.20;;;20.90;37.10;;;;;;4929507;29;20483;-70
2022/05/30 12:57:44;;;;;;;0.40;0.20;;;22.10;39.40;;;;;;4923115;29;20413;-70
2022/05/30 13:00:14;;;;;;;0.40;0.20;;;21.60;35.80;;;;;;4925703;29;20496;-72
2022/05/30 13:02:46;;;;;;;0.40;0.20;;;22.30;38.10;;;;;;4928068;29;20461;-73
2022/05/30 13:05:43;;;;;;;0.40;0.20;;;21.90;35.40;;;;;;4932580;29;20427;-71
2022/05/30 13:08:46;;;;;;;0.40;0.20;;;22.40;42.20;;;;;;4936116;29;20435;-70
2022/05/30 13:11:19;;;;;;;0.40;0.30;;;23.40;35.30;;;;;;4932018;29;20413;-69
2022/05/30 13:13:49;;;;;;;0.40;0.20;;;23.70;34.30;;;;;;4924933;29;20480;-70
2022/05/30 13:16:42;;;;;;;0.40;0.30;;;23.10;34.40;;;;;;4931903;29;20403;-69
2022/05/30 13:19:13;;;;;;;0.40;0.20;;;22.30;36.60;;;;;;4919600;29;20437;-68
2022/05/30 13:21:42;;;;;;;0.40;0.30;;;22.60;34.60;;;;;;4935622;29;20395;-73
2022/05/30 13:24:32;;;;;;;0.40;0.20;;;22.10;37.60;;;;;;4935643;29;20415;-71
2022/05/30 13:27:00;;;;;;;0.40;0.20;;;21.80;36.50;;;;;;4949915;29;20422;-70
2022/05/30 13:29:37;;;;;;;0.40;0.30;;;22.90;37.80;;;;;;4935713;29;20426;-70
2022/05/30 13:32:18;;;;;;;0.40;0.20;;;23.00;36.40;;;;;;4926682;29;20467;-70
2022/05/30 13:34:49;;;;;;;0.40;0.30;;;23.20;33.30;;;;;;4927925;29;20477;-70
2022/05/30 13:37:24;;;;;;;0.40;0.20;;;23.50;34.50;;;;;;4924800;29;20401;-71